Logo AVAMET
Benvolgut visitant, si us plau, ingressa Recuperar contrasenya
AVAMET paisatges

Borriana Platja del Grau

Dades diàries. Acumulats / Últims 30 dies disponibles

Data Temperatura (°C) Humitat rel. (%) Pressió rel. (hPa) Vent (km/h) Precipitació
Mínima Mitjana Màxima Amplitud
tèrmica
Mínima Mitjana Màxima Mínima Mitjana Màxima Predom. Mitjana Ràfega
màxima
Total
(mm)
Índex-n
Mínima Mitjana Màxima Mínima Mitjana Màxima n
0 a 1
P0 max
mm 5'
Dades mensuals acumulades fins l'últim dia disponible
10/2020 10,8 13,3 16,3 17,7 18,9 22,1 24,6 13,8 35 68 96 993 1.015 1.025   5,0 92,5 2,8
Dades anuals acumulades fins l'últim dia disponible
2020 3,6 14,5 24,9 17,9 10,9 20,9 30,4 26,8 24 78 98 993 1.021 1.038   10,6 96,5 342,6
Últims 30 dies disponibles
20-10-2020 16,3     18,7     20,7 4,4 83 90 96 1.014 1.019 1.022 N 0,8 27,8 0,0
19-10-2020 12,9     17,0     20,6 7,7 72 80 88 1.022 1.024 1.025 O 2,0 25,9 0,0
18-10-2020 12,0     16,3     20,4 8,4 50 68 85 1.022 1.024 1.025 ONO 3,3 25,9 0,0
17-10-2020 10,8     14,4     18,9 8,1 56 69 82 1.019 1.021 1.022 ONO 5,7 29,6 0,0
06-10-2020 13,5     17,0     21,9 8,4 55 66 77 1.022 1.023 1.024 SO 4,6 27,8 0,0
05-10-2020 13,1     18,0     21,4 8,3 44 59 70 1.014 1.018 1.023 SO 5,1 33,8 0,0
04-10-2020 11,9     18,3     24,6 12,7 37 54 69 1.008 1.011 1.014 OSO 8,7 74,0 0,0
03-10-2020 12,4     18,0     24,2 11,8 35 51 65 1.002 1.007 1.012 SO 5,8 45,0 0,0
02-10-2020 14,0     19,5     24,2 10,2 55 64 94 993 999 1.007 SO 10,3 92,5 2,8 0,35 0,80
01-10-2020 15,7     20,1     23,7 8,0 62 81 90 1.007 1.011 1.016 SSO 3,3 33,8 0,0
30-09-2020 15,4     19,4     22,6 7,2 68 81 89 1.016 1.018 1.021 SO 0,3 24,1 0,0
29-09-2020 14,7     18,9     22,6 7,9 56 69 84 1.020 1.021 1.023 SSO 3,0 29,6 0,0
28-09-2020 14,2     18,2     21,9 7,7 41 59 74 1.017 1.019 1.022 SO 5,6 42,6 0,0
27-09-2020 15,7     20,9     23,4 7,7 24 51 72 1.010 1.013 1.017 SSO 7,0 57,9 0,0
26-09-2020 15,4     19,6     25,0 9,6 43 54 68 1.012 1.018 1.023 SO 4,6 42,6 0,0
25-09-2020 18,2     22,3     25,1 6,9 29 45 64 1.014 1.017 1.023 O 12,1 68,5 0,0
24-09-2020 20,1     24,3     29,5 9,4 51 68 80 1.012 1.014 1.016 SO 4,2 48,3 0,0
23-09-2020 19,7     23,3     27,0 7,3 59 76 85 1.012 1.014 1.016 SSO 3,1 48,1 0,0
22-09-2020 19,1     22,1     24,5 5,4 72 80 87 1.015 1.017 1.019 SO 2,3 33,8 0,0
21-09-2020 19,3     22,8     26,2 6,9 64 75 86 1.017 1.018 1.019 SSO 1,5 33,8 0,0
20-09-2020 18,9     23,5     26,1 7,2 58 69 86 1.017 1.018 1.019 S 2,7 32,2 0,0
19-09-2020 22,3     24,7     30,2 7,9 53 56 59 1.016 1.017 1.018 SO 0,0 53,7 0,0
07-09-2020 21,4     22,1     23,4 2,0 54 70 88 1.018 1.019 1.022 SO 7,4 51,8 0,0
06-09-2020 19,8     23,6     25,8 6,0 72 80 88 1.018 1.019 1.021 S 3,5 31,5 0,0
05-09-2020 19,0     23,1     25,7 6,7 68 80 87 1.021 1.023 1.025 SSO 3,6 37,0 0,0
04-09-2020 18,7     23,1     26,4 7,7 70 79 85 1.025 1.026 1.028 SSO 5,9 37,0 0,0
03-09-2020 19,4     23,3     26,2 6,8 70 78 88 1.022 1.024 1.027 SSO 7,6 33,8 0,0
02-09-2020 17,7     22,2     25,2 7,5 57 77 87 1.016 1.019 1.022 S 7,5 33,8 0,0
01-09-2020 18,3     22,0     24,8 6,5 60 75 88 1.015 1.017 1.020 SO 5,2 37,0 0,2
31-08-2020 17,2     21,5     24,5 7,3 47 62 76 1.019 1.020 1.022 S 10,5 40,7 0,0
Últims 13 mesos disponibles
07/2020 19,3 21,6 23,9 24,9 25,3 27,1 29,7 10,4 64 81 88 1.014 1.019 1.023 SSE 8,9 45,0 2,2
06/2020 14,1 18,2 21,8 21,7 19,9 24,1 27,9 13,8 46 78 89 1.006 1.017 1.024 S 12,4 68,5 25,8
05/2020 12,4 16,2 19,6 19,7 18,5 22,7 30,4 18,0 56 79 89 1.007 1.019 1.030 S 11,9 68,5 22,8
04/2020 7,9 12,3 17,7 15,1 13,7 17,9 27,6 19,7 55 83 93 1.008 1.019 1.029 S 11,6 72,4 120,6
03/2020 5,7 10,0 14,3 13,3 10,9 16,2 24,5 18,8 49 77 95 1.008 1.020 1.029 SSO 14,4 94,9 91,4
02/2020 6,1 9,7 13,6 13,4 13,4 17,0 24,4 18,3 56 78 92 1.015 1.028 1.036 SO 10,5 68,5 0,0
01/2020 3,6 7,2 12,7 10,7 10,9 14,3 18,9 15,3 67 80 94 1.020 1.028 1.035 SO 13,8 96,5 69,0
12/2019 5,4 10,1 17,2 13,3 12,7 16,9 25,3 19,9 52 75 94 1.004 1.022 1.036 SO 13,4 79,6 68,0
11/2019 6,8 12,0 19,2 15,6 13,9 19,3 27,4 20,6 45 61 82 1.000 1.013 1.020 SO 13,3 80,4 2,2
10/2019 10,3 15,7 20,0 19,3 15,3 22,7 27,4 17,1 59 76 88 1.009 1.019 1.024 ESE 13,1 68,5 14,8
09/2019 14,5 19,6 22,4 22,7 24,0 25,7 30,8 16,3 58 79 88 1.012 1.020 1.028 ESE 14,7 93,3 61,0
08/2019 17,2 21,5 24,2 24,8 25,5 27,4 30,1 12,9 62 80 89 1.013 1.018 1.023 S 11,3 93,3 16,8
07/2019 20,4 21,8 23,4 25,1 26,1 27,4 29,4 9,0 61 77 87 1.008 1.017 1.024 S 12,4 64,8 15,4
Tots els anys disponibles
2019 3,7 14,0 24,2 17,4 8,7 20,6 30,8 27,1 31 73 96 996 1.020 1.037 SSO 13,5 111,0 219,2
2018 1,3 14,3 27,1 17,6 7,7 20,7 32,4 31,1 33 74 96 995 1.018 1.038 SO 13,1 88,8 454,6
Temperatura (°C)
Humitat relativa (%)
Velocitat del vent i ràfega màxima (km/h)
Direcció del vent (°)
Pressió (hPa)
Precipitació (mm)
Nota sobre les dades: s'avisa a l'usuari de la provisionalitat i no oficialitat d'aquestes dades
Logo AVAMET blanc
Web allotjada a Sollutia
Llicència de Creative CommonsLa web d'AVAMET i els seus continguts estan subjectes a una llicència de
Reconeixement - No Comercial - Compartir igual
Últimes estacions: Sueca - Mareny de Barraquetes (Inforatge), La Vilavella - Centre (Ajuntament Soci), Alfondeguilla (Soci), Santa Magdalena de Polpís (Soci),  Benafigos (Aj. Soci), Carlet - Ajuntament (Inforatge), Montroi (Inforatge), Bronchales (Limítrofe-Terol/Aj. Soci), Sueca - Muntanyeta dels Sants (Inforatge), Vilamarxant - Ajuntament (Aj. Soci/Inforatge) - - -